Time;durP1;ratioP1;P1;durP2;ratioP2;P2;SDS_P1;SDS_P2;PMS_P1;PMS_P2;Temp;Humidity;BMP_temperature;BMP_pressure;BME280_temperature;BME280_humidity;BME280_pressure;Samples;Min_cycle;Max_cycle;Signal;HPM_P1;HPM_P2
2023/10/20 00:00:34;;;;;;;14.20;12.00;;;;;;;13.06;64.11;94493.81;4960503;28;20225;-73
2023/10/20 00:02:59;;;;;;;12.90;11.48;;;;;;;13.17;63.53;94499.47;4947379;28;20224;-72
2023/10/20 00:05:25;;;;;;;12.40;11.15;;;;;;;13.02;63.95;94493.38;4981733;28;20185;-73
2023/10/20 00:07:53;;;;;;;14.63;11.77;;;;;;;13.06;63.59;94488.53;4979140;28;20197;-72
2023/10/20 00:10:18;;;;;;;12.70;11.45;;;;;;;13.13;63.28;94479.72;4999025;28;20232;-73
2023/10/20 00:12:44;;;;;;;16.88;11.50;;;;;;;13.09;63.98;94486.34;4977195;28;20279;-73
2023/10/20 00:15:13;;;;;;;12.82;10.85;;;;;;;13.08;63.93;94495.28;4974034;28;20240;-73
2023/10/20 00:17:40;;;;;;;13.70;12.27;;;;;;;13.11;63.57;94479.09;4967338;28;20274;-73
2023/10/20 00:20:06;;;;;;;14.35;12.27;;;;;;;13.16;63.04;94474.09;4971498;28;20180;-73
2023/10/20 00:22:31;;;;;;;29.45;25.17;;;;;;;12.90;63.85;94471.03;4969042;28;20279;-71
2023/10/20 00:24:56;;;;;;;27.90;24.25;;;;;;;12.99;63.84;94473.44;4969010;28;20718;-71
2023/10/20 00:27:22;;;;;;;29.75;25.58;;;;;;;13.07;63.66;94475.19;4979181;28;20223;-73
2023/10/20 00:29:48;;;;;;;23.63;20.95;;;;;;;13.14;63.19;94475.25;4973002;28;20220;-73
2023/10/20 00:32:13;;;;;;;14.57;12.73;;;;;;;13.07;63.42;94469.06;4983701;28;20203;-73
2023/10/20 00:34:39;;;;;;;21.92;19.58;;;;;;;12.93;63.98;94468.84;4974082;28;20229;-71
2023/10/20 00:37:04;;;;;;;29.77;24.98;;;;;;;13.10;63.45;94461.63;4965779;28;20256;-73
2023/10/20 00:39:30;;;;;;;27.20;21.88;;;;;;;13.01;63.45;94460.03;4972399;28;20319;-74
2023/10/20 00:41:56;;;;;;;24.58;20.15;;;;;;;12.94;63.79;94459.16;4979413;28;20266;-74
2023/10/20 00:44:22;;;;;;;27.17;18.52;;;;;;;12.99;63.65;94457.59;4971814;28;20181;-74
2023/10/20 00:46:47;;;;;;;21.85;15.45;;;;;;;13.03;63.60;94453.59;4974493;28;20192;-71
2023/10/20 00:49:13;;;;;;;17.60;14.98;;;;;;;12.95;63.71;94443.13;4964267;28;20251;-72
2023/10/20 00:51:40;;;;;;;15.85;13.73;;;;;;;12.90;64.07;94437.56;4968649;28;20223;-72
2023/10/20 00:54:09;;;;;;;16.13;13.95;;;;;;;13.08;63.55;94458.34;4981815;28;20237;-73
2023/10/20 00:56:35;;;;;;;19.02;17.00;;;;;;;13.01;63.73;94449.50;4967357;28;20193;-72
2023/10/20 00:59:00;;;;;;;19.25;16.20;;;;;;;13.04;63.71;94443.84;4971459;28;20215;-71
2023/10/20 01:01:25;;;;;;;19.42;17.15;;;;;;;13.05;63.42;94455.25;4967917;28;20224;-72
2023/10/20 01:03:51;;;;;;;19.70;17.60;;;;;;;12.97;63.54;94456.13;4968577;28;20216;-73
2023/10/20 01:06:16;;;;;;;19.92;17.83;;;;;;;12.95;64.12;94466.06;4978016;28;20236;-73
2023/10/20 01:08:42;;;;;;;18.80;15.30;;;;;;;12.75;64.58;94458.66;4973072;28;20291;-73
2023/10/20 01:11:08;;;;;;;19.20;16.35;;;;;;;12.85;64.40;94457.56;4971078;28;20189;-73
2023/10/20 01:13:33;;;;;;;17.52;14.85;;;;;;;12.86;64.31;94459.22;4976178;28;20228;-72
2023/10/20 01:15:58;;;;;;;15.15;13.55;;;;;;;12.79;64.13;94454.63;4981161;28;20269;-71
2023/10/20 01:18:24;;;;;;;14.38;12.25;;;;;;;12.78;64.35;94447.75;4975175;28;20215;-72
2023/10/20 01:20:49;;;;;;;14.35;12.77;;;;;;;12.56;65.46;94448.56;4975230;28;20223;-72
2023/10/20 01:23:15;;;;;;;16.52;12.75;;;;;;;12.69;64.66;94440.06;4974147;28;20187;-73
2023/10/20 01:25:40;;;;;;;14.48;12.93;;;;;;;12.69;64.81;94438.25;4971459;28;20224;-73
2023/10/20 01:28:05;;;;;;;15.93;13.85;;;;;;;12.76;64.45;94441.81;4971084;28;20221;-72
2023/10/20 01:30:31;;;;;;;17.20;12.18;;;;;;;12.50;65.75;94425.56;4977370;28;20223;-72
2023/10/20 01:32:56;;;;;;;14.60;13.20;;;;;;;12.58;65.43;94433.41;4974710;28;20230;-73
2023/10/20 01:35:22;;;;;;;14.98;12.75;;;;;;;12.55;65.03;94433.75;4977449;28;20227;-72
2023/10/20 01:37:47;;;;;;;16.88;15.07;;;;;;;12.58;65.00;94438.69;4972396;28;20263;-72
2023/10/20 01:40:13;;;;;;;15.65;12.60;;;;;;;12.50;64.97;94410.56;4966655;28;20307;-72
2023/10/20 01:42:39;;;;;;;16.63;12.05;;;;;;;12.47;65.58;94420.66;4982022;28;20226;-72
2023/10/20 01:45:05;;;;;;;14.30;12.73;;;;;;;12.56;65.31;94412.50;4977558;28;20231;-72
2023/10/20 01:47:31;;;;;;;12.80;11.50;;;;;;;12.62;65.21;94418.06;4969832;28;20188;-72
2023/10/20 01:49:57;;;;;;;12.38;11.05;;;;;;;12.64;65.02;94413.41;4973111;28;20187;-72
2023/10/20 01:52:23;;;;;;;14.05;10.55;;;;;;;12.65;64.83;94409.78;4968698;28;20221;-72
2023/10/20 01:54:48;;;;;;;14.73;11.95;;;;;;;12.61;65.03;94413.75;4964110;28;20228;-72
2023/10/20 01:57:14;;;;;;;13.38;11.98;;;;;;;12.65;64.82;94405.31;4971838;28;20232;-72
2023/10/20 01:59:39;;;;;;;12.70;11.30;;;;;;;12.65;64.89;94407.97;4951812;28;20220;-72
2023/10/20 02:02:05;;;;;;;14.60;11.73;;;;;;;12.62;64.96;94407.50;4985327;28;20216;-72
2023/10/20 02:04:31;;;;;;;11.68;10.48;;;;;;;12.60;64.98;94423.50;4970260;28;20216;-73
2023/10/20 02:06:57;;;;;;;10.80;9.70;;;;;;;12.58;65.08;94422.84;4979609;28;20227;-73
2023/10/20 02:09:25;;;;;;;11.75;9.80;;;;;;;12.56;65.21;94423.06;4976795;28;20220;-73
2023/10/20 02:11:51;;;;;;;11.85;10.65;;;;;;;12.51;65.24;94427.19;4969036;28;20365;-73
2023/10/20 02:14:17;;;;;;;13.13;10.75;;;;;;;12.40;65.63;94424.97;4983092;28;20430;-72
2023/10/20 02:16:42;;;;;;;11.38;10.15;;;;;;;12.05;66.56;94420.13;4971913;28;20299;-73
2023/10/20 02:19:08;;;;;;;12.35;11.15;;;;;;;12.10;66.43;94427.50;4982470;28;20225;-73
2023/10/20 02:21:33;;;;;;;14.10;11.18;;;;;;;12.06;66.51;94405.97;4976996;28;20224;-73
2023/10/20 02:23:59;;;;;;;11.73;10.70;;;;;;;12.08;66.66;94401.34;4971480;28;20230;-73
2023/10/20 02:26:24;;;;;;;13.80;10.60;;;;;;;12.17;66.11;94410.00;4964810;28;20199;-74
2023/10/20 02:28:49;;;;;;;11.77;10.60;;;;;;;12.07;66.53;94412.06;4974351;28;20320;-73
2023/10/20 02:31:17;;;;;;;11.90;10.80;;;;;;;12.14;66.69;94418.28;4975021;28;20258;-74
2023/10/20 02:33:43;;;;;;;11.20;10.10;;;;;;;12.31;65.91;94424.22;4970695;28;20236;-72
2023/10/20 02:36:08;;;;;;;12.87;11.50;;;;;;;12.00;66.61;94408.47;4974131;28;20235;-77
2023/10/20 02:38:34;;;;;;;12.00;10.82;;;;;;;11.94;67.07;94411.81;4974061;28;20242;-73
2023/10/20 02:41:00;;;;;;;12.48;11.23;;;;;;;11.84;67.64;94417.28;4983002;28;20194;-73
2023/10/20 02:43:25;;;;;;;12.20;10.93;;;;;;;11.96;66.99;94428.28;4971004;28;20228;-73
2023/10/20 02:45:52;;;;;;;12.60;10.50;;;;;;;11.93;66.89;94424.19;4968879;28;20225;-73
2023/10/20 02:48:19;;;;;;;11.70;10.60;;;;;;;12.01;66.58;94421.47;4971191;28;20229;-72
2023/10/20 02:50:45;;;;;;;10.80;9.52;;;;;;;11.98;66.94;94418.38;4958683;28;20231;-72
2023/10/20 02:53:13;;;;;;;11.82;10.73;;;;;;;11.90;66.94;94420.06;4971507;28;20197;-72
2023/10/20 02:55:42;;;;;;;11.32;10.32;;;;;;;11.97;66.39;94416.72;4972141;28;20235;-73
2023/10/20 02:58:11;;;;;;;12.00;10.80;;;;;;;11.95;66.57;94413.44;4975416;28;20314;-73
2023/10/20 03:00:44;;;;;;;11.40;10.15;;;;;;;11.82;66.88;94420.09;4965241;28;20317;-74
2023/10/20 03:03:11;;;;;;;11.43;10.33;;;;;;;11.64;67.81;94422.97;4999415;28;20232;-72
2023/10/20 03:05:37;;;;;;;12.77;11.50;;;;;;;11.74;67.24;94406.97;4975863;28;20259;-72
2023/10/20 03:08:03;;;;;;;12.05;10.85;;;;;;;11.75;67.10;94400.69;4969902;28;20280;-72
2023/10/20 03:10:28;;;;;;;13.00;10.73;;;;;;;11.82;67.19;94401.66;4983554;28;20227;-73
2023/10/20 03:12:53;;;;;;;12.30;11.00;;;;;;;11.76;66.91;94404.16;4977383;28;20224;-72
2023/10/20 03:15:19;;;;;;;12.70;11.43;;;;;;;11.79;66.70;94409.91;4983874;28;20237;-72
2023/10/20 03:17:45;;;;;;;12.10;11.00;;;;;;;11.62;67.16;94401.25;4984924;28;20235;-72
2023/10/20 03:20:16;;;;;;;12.30;11.10;;;;;;;11.60;67.51;94410.31;4972876;28;20271;-73
2023/10/20 03:22:41;;;;;;;12.65;11.43;;;;;;;11.67;66.98;94391.03;4974396;28;20250;-73
2023/10/20 03:25:10;;;;;;;11.43;10.25;;;;;;;11.50;67.64;94402.66;4973636;28;20248;-73
2023/10/20 03:27:38;;;;;;;12.55;11.10;;;;;;;11.44;68.23;94396.28;4956287;28;20226;-73
2023/10/20 03:30:05;;;;;;;11.93;10.43;;;;;;;11.55;67.64;94386.34;4964936;28;20232;-73
2023/10/20 03:32:35;;;;;;;13.93;11.05;;;;;;;11.59;67.54;94404.25;4989106;28;20197;-73
2023/10/20 03:35:00;;;;;;;12.55;11.00;;;;;;;11.52;67.85;94395.41;4973870;28;20243;-73
2023/10/20 03:37:26;;;;;;;11.77;10.75;;;;;;;11.48;67.63;94407.28;4967828;28;20225;-73
2023/10/20 03:39:51;;;;;;;12.60;11.40;;;;;;;11.21;68.67;94398.03;4953658;28;20232;-73
2023/10/20 03:42:17;;;;;;;11.97;10.70;;;;;;;11.36;68.13;94390.22;4960426;28;20264;-73
2023/10/20 03:44:47;;;;;;;11.98;10.88;;;;;;;11.47;67.55;94374.06;4974390;28;20235;-72
2023/10/20 03:47:14;;;;;;;11.32;10.30;;;;;;;11.23;68.19;94383.69;4976018;28;20189;-73
2023/10/20 03:49:39;;;;;;;13.48;10.25;;;;;;;11.01;69.03;94393.16;4977141;28;20216;-73
2023/10/20 03:52:11;;;;;;;12.23;11.03;;;;;;;11.25;68.00;94379.09;4969821;28;20236;-72
2023/10/20 03:54:38;;;;;;;10.90;9.83;;;;;;;11.13;68.71;94380.44;4958450;28;20240;-72
2023/10/20 03:57:04;;;;;;;11.45;10.48;;;;;;;11.28;68.28;94370.03;4972601;28;20236;-72
2023/10/20 03:59:31;;;;;;;12.82;11.63;;;;;;;11.27;68.00;94369.19;4972814;28;20219;-72
2023/10/20 04:01:56;;;;;;;11.88;10.77;;;;;;;11.10;69.11;94374.72;4977446;28;20219;-73
2023/10/20 04:04:22;;;;;;;12.63;9.80;;;;;;;11.24;68.53;94372.16;4971210;28;20216;-73
2023/10/20 04:06:49;;;;;;;10.73;9.60;;;;;;;11.39;67.86;94374.09;4972266;28;20225;-73
2023/10/20 04:09:17;;;;;;;13.73;10.50;;;;;;;11.34;68.13;94387.75;4972004;28;20220;-74
2023/10/20 04:11:43;;;;;;;11.83;10.73;;;;;;;11.29;68.12;94373.47;4972470;28;20224;-72
2023/10/20 04:14:09;;;;;;;12.40;11.30;;;;;;;11.12;69.00;94373.56;4971528;28;20223;-73
2023/10/20 04:16:39;;;;;;;11.87;10.67;;;;;;;11.13;68.83;94364.66;4973271;28;20270;-72
2023/10/20 04:19:09;;;;;;;13.05;11.80;;;;;;;11.18;69.04;94372.06;4970941;28;20249;-71
2023/10/20 04:21:35;;;;;;;13.43;11.48;;;;;;;11.10;69.04;94367.63;4969949;28;20231;-70
2023/10/20 04:24:01;;;;;;;15.63;11.57;;;;;;;11.12;69.11;94396.38;4968648;28;20303;-70
2023/10/20 04:26:30;;;;;;;13.13;11.80;;;;;;;11.17;69.19;94399.34;4969237;28;20192;-70
2023/10/20 05:01:16;;;;;;;15.50;13.07;;;;;;;11.18;69.56;94379.94;4951444;28;20453;-70
2023/10/20 05:03:52;;;;;;;23.88;15.43;;;;;;;11.26;69.41;94398.34;4952388;28;20333;-72
2023/10/20 05:06:26;;;;;;;22.08;13.98;;;;;;;11.34;68.97;94392.22;4938871;29;20333;-72
2023/10/20 05:08:53;;;;;;;18.63;13.02;;;;;;;11.35;68.85;94396.47;4937728;29;20304;-71
2023/10/20 05:11:19;;;;;;;20.58;13.93;;;;;;;11.26;69.24;94393.88;4938851;28;20201;-72
2023/10/20 05:13:44;;;;;;;23.73;13.15;;;;;;;11.37;69.03;94413.75;4959444;28;20260;-72
2023/10/20 05:16:10;;;;;;;16.65;13.35;;;;;;;11.34;68.94;94400.91;4954031;28;20228;-73
2023/10/20 05:18:37;;;;;;;20.23;12.23;;;;;;;11.35;68.96;94410.44;4946941;28;20233;-71
2023/10/20 05:21:08;;;;;;;16.30;12.40;;;;;;;11.41;68.64;94393.16;4962543;28;20232;-72
2023/10/20 05:23:34;;;;;;;16.48;12.98;;;;;;;11.49;68.15;94393.09;4953347;28;20218;-71
2023/10/20 05:26:00;;;;;;;16.80;13.82;;;;;;;11.26;69.01;94414.13;4953162;29;20177;-72
2023/10/20 05:28:26;;;;;;;18.42;13.70;;;;;;;11.25;69.16;94394.88;4949778;28;20225;-73
2023/10/20 05:30:52;;;;;;;15.55;13.45;;;;;;;11.21;69.51;94432.22;4946335;28;20217;-72
2023/10/20 05:33:17;;;;;;;15.15;13.55;;;;;;;11.25;69.68;94423.00;4949587;28;20248;-71
2023/10/20 05:35:43;;;;;;;17.17;14.43;;;;;;;11.21;69.80;94438.31;4955157;28;20224;-72
2023/10/20 05:38:09;;;;;;;19.05;14.63;;;;;;;11.40;69.27;94438.91;4966444;28;20193;-72
2023/10/20 05:40:36;;;;;;;17.90;14.32;;;;;;;11.14;70.15;94444.41;4970149;28;20228;-71
2023/10/20 05:43:03;;;;;;;20.17;14.40;;;;;;;10.94;70.99;94436.09;4974677;28;20310;-72
2023/10/20 05:45:32;;;;;;;20.83;15.35;;;;;;;11.28;69.83;94427.94;4962233;28;20233;-73
2023/10/20 05:48:01;;;;;;;16.48;13.98;;;;;;;11.22;69.94;94420.69;4973834;28;20224;-73
2023/10/20 05:50:26;;;;;;;17.17;14.25;;;;;;;11.45;69.45;94424.22;4970267;28;20200;-73
2023/10/20 05:52:52;;;;;;;19.10;15.20;;;;;;;11.61;69.07;94428.59;4971126;28;20198;-73
2023/10/20 05:55:18;;;;;;;20.08;14.85;;;;;;;11.65;68.91;94434.34;4973594;28;20228;-72
2023/10/20 05:57:45;;;;;;;20.75;15.35;;;;;;;11.64;69.06;94425.63;4974622;28;20255;-72
2023/10/20 06:00:13;;;;;;;18.83;15.32;;;;;;;11.53;69.62;94422.56;4977276;28;20312;-74
2023/10/20 06:02:40;;;;;;;20.38;14.38;;;;;;;11.64;69.41;94425.63;4981995;28;20228;-74
2023/10/20 06:05:07;;;;;;;16.98;15.25;;;;;;;11.98;68.71;94413.94;4976376;28;20184;-74
2023/10/20 06:07:33;;;;;;;17.83;15.40;;;;;;;12.06;68.03;94436.78;4975261;28;20242;-73
2023/10/20 06:09:58;;;;;;;20.50;15.10;;;;;;;11.85;69.00;94432.09;4985691;28;20233;-73
2023/10/20 06:12:24;;;;;;;17.90;14.73;;;;;;;11.99;68.72;94444.53;4989489;28;20234;-72
2023/10/20 06:14:49;;;;;;;17.77;14.85;;;;;;;12.08;68.22;94432.97;4974597;28;20228;-72
2023/10/20 06:17:17;;;;;;;20.50;15.13;;;;;;;12.01;68.71;94437.28;4974334;28;20196;-72
2023/10/20 06:19:44;;;;;;;19.02;15.13;;;;;;;12.09;68.52;94439.88;4980481;28;20280;-72
2023/10/20 06:22:09;;;;;;;19.40;15.68;;;;;;;12.05;68.72;94449.09;4977236;28;20278;-72
2023/10/20 06:24:35;;;;;;;18.55;14.88;;;;;;;12.13;68.34;94445.59;4962342;28;20225;-71
2023/10/20 06:27:03;;;;;;;18.95;15.68;;;;;;;12.19;68.34;94441.44;4991628;28;20220;-70
2023/10/20 06:29:42;;;;;;;18.35;15.45;;;;;;;12.44;67.24;94437.66;4975466;28;20208;-71
2023/10/20 06:34:42;;;;;;;22.40;15.10;;;;;;;12.90;65.92;94426.19;4976368;28;20227;-70
2023/10/20 06:37:18;;;;;;;22.33;16.02;;;;;;;13.07;65.54;94437.38;4974761;28;20235;-71
2023/10/20 06:39:43;;;;;;;20.50;16.58;;;;;;;13.27;64.75;94438.53;4970099;28;20244;-71
2023/10/20 06:42:09;;;;;;;18.00;15.48;;;;;;;13.14;64.84;94418.00;4968736;28;20316;-71
2023/10/20 06:44:35;;;;;;;20.08;15.80;;;;;;;13.21;65.43;94429.47;4955514;28;20268;-71
2023/10/20 06:47:00;;;;;;;21.83;14.82;;;;;;;13.40;64.99;94429.97;4957162;28;20185;-71
2023/10/20 06:49:27;;;;;;;20.10;15.00;;;;;;;13.36;65.49;94431.31;5000862;28;20227;-72
2023/10/20 06:51:53;;;;;;;23.65;15.02;;;;;;;13.58;64.58;94433.03;4969658;28;20221;-71
2023/10/20 06:54:18;;;;;;;19.63;14.15;;;;;;;13.72;64.12;94439.31;4971086;28;20235;-73
2023/10/20 06:56:44;;;;;;;20.80;16.50;;;;;;;13.88;64.13;94433.81;4981294;28;20227;-71
2023/10/20 06:59:13;;;;;;;23.05;15.15;;;;;;;14.26;63.16;94435.41;4966001;28;20176;-71
2023/10/20 07:01:40;;;;;;;20.58;16.38;;;;;;;14.15;63.17;94435.91;4975640;28;20299;-72
2023/10/20 07:04:08;;;;;;;22.23;15.73;;;;;;;14.28;62.94;94433.41;4963153;28;20222;-71
2023/10/20 07:06:34;;;;;;;17.88;14.85;;;;;;;14.28;62.97;94438.69;4972393;28;20236;-72
2023/10/20 07:09:00;;;;;;;15.88;14.27;;;;;;;14.41;62.58;94438.81;4962254;28;20255;-70
2023/10/20 07:11:27;;;;;;;18.20;15.70;;;;;;;14.46;62.10;94439.06;4969193;28;20312;-71
2023/10/20 07:13:52;;;;;;;19.38;15.68;;;;;;;14.34;62.54;94445.88;4965694;28;20205;-72
2023/10/20 07:16:18;;;;;;;19.15;15.15;;;;;;;14.28;62.88;94443.97;4956100;28;20319;-72
2023/10/20 07:18:43;;;;;;;17.08;15.30;;;;;;;14.42;61.91;94432.50;4971527;28;20307;-71
2023/10/20 07:21:09;;;;;;;20.08;15.52;;;;;;;14.58;62.04;94428.00;4975751;28;20225;-70
2023/10/20 07:23:34;;;;;;;19.08;14.88;;;;;;;14.55;61.76;94432.66;4975133;28;20195;-72
2023/10/20 07:26:00;;;;;;;18.75;14.70;;;;;;;14.61;61.87;94436.38;4977516;28;20245;-74
2023/10/20 07:28:25;;;;;;;15.23;13.65;;;;;;;14.72;61.19;94433.19;4981440;28;20220;-72
2023/10/20 07:30:53;;;;;;;17.08;13.57;;;;;;;14.65;61.42;94434.16;4984109;28;20244;-72
2023/10/20 07:33:19;;;;;;;14.02;12.63;;;;;;;14.70;61.63;94437.03;4979401;28;20241;-77
2023/10/20 07:35:45;;;;;;;13.20;11.20;;;;;;;14.86;60.69;94433.31;4972189;28;20238;-75
2023/10/20 07:38:12;;;;;;;13.80;10.63;;;;;;;14.86;60.62;94436.78;4978843;28;20210;-75
2023/10/20 07:40:37;;;;;;;13.90;12.00;;;;;;;14.93;60.83;94448.22;4972804;28;20309;-74
2023/10/20 07:43:06;;;;;;;17.58;15.05;;;;;;;15.05;60.58;94460.94;4981189;28;20317;-76
2023/10/20 07:45:41;;;;;;;21.20;15.13;;;;;;;15.15;60.14;94464.06;4965859;28;20270;-76
2023/10/20 07:48:07;;;;;;;16.52;14.90;;;;;;;15.17;59.75;94452.28;4983428;28;20219;-74
2023/10/20 07:50:32;;;;;;;18.38;15.55;;;;;;;15.12;59.80;94451.22;4968053;28;20207;-70
2023/10/20 07:52:57;;;;;;;18.98;15.52;;;;;;;15.12;59.88;94436.13;4970354;28;20181;-71
2023/10/20 07:55:23;;;;;;;16.45;14.55;;;;;;;15.17;59.98;94456.75;4973644;28;20280;-70
2023/10/20 07:57:48;;;;;;;17.67;14.05;;;;;;;15.25;59.69;94440.72;4984906;28;20259;-70
2023/10/20 08:00:14;;;;;;;16.00;14.07;;;;;;;15.27;59.26;94440.53;4970876;28;20555;-70
2023/10/20 08:02:41;;;;;;;13.82;10.13;;;;;;;15.49;58.81;94439.41;4975835;28;20219;-68
2023/10/20 08:05:08;;;;;;;12.98;10.85;;;;;;;15.49;58.44;94434.13;4973144;28;20252;-71
2023/10/20 08:07:33;;;;;;;11.07;9.18;;;;;;;15.55;57.96;94443.94;4973009;28;20278;-72
2023/10/20 08:09:59;;;;;;;14.57;9.45;;;;;;;15.56;58.00;94440.28;4970439;28;20224;-71
2023/10/20 08:12:24;;;;;;;10.75;8.52;;;;;;;15.72;57.68;94433.88;4984777;28;20240;-72
2023/10/20 08:14:50;;;;;;;12.27;8.40;;;;;;;16.02;56.71;94431.72;4962348;28;20238;-71
2023/10/20 08:17:15;;;;;;;11.13;7.22;;;;;;;16.02;56.75;94433.56;4968526;28;20195;-71
2023/10/20 08:19:45;;;;;;;10.32;8.32;;;;;;;15.91;56.67;94436.78;4983562;28;20232;-72
2023/10/20 08:22:10;;;;;;;10.65;8.80;;;;;;;15.68;57.60;94426.47;4967369;28;20236;-70
2023/10/20 08:24:35;;;;;;;11.63;8.15;;;;;;;15.72;57.54;94425.91;4965401;28;20220;-70
2023/10/20 08:27:01;;;;;;;9.98;8.52;;;;;;;15.87;57.27;94426.56;4984115;28;20220;-72
2023/10/20 08:29:27;;;;;;;14.35;9.00;;;;;;;15.88;57.14;94435.34;4965910;28;20192;-70
2023/10/20 08:31:52;;;;;;;11.90;8.55;;;;;;;15.97;57.06;94441.28;4965706;28;20239;-70
2023/10/20 08:34:18;;;;;;;11.52;9.13;;;;;;;16.19;56.34;94434.00;4967776;28;20376;-71
2023/10/20 08:36:43;;;;;;;12.60;10.00;;;;;;;16.03;56.72;94427.22;4943078;28;20276;-71
2023/10/20 08:39:19;;;;;;;13.55;10.23;;;;;;;16.06;56.88;94426.81;4952985;28;20239;-71
2023/10/20 08:41:45;;;;;;;17.90;11.18;;;;;;;16.18;56.41;94425.22;4965328;28;20220;-76
2023/10/20 08:44:11;;;;;;;16.55;9.80;;;;;;;16.27;56.28;94424.00;4985469;28;20212;-75
2023/10/20 08:46:39;;;;;;;14.35;11.68;;;;;;;16.38;56.54;94406.69;4973252;28;20227;-75
2023/10/20 08:49:05;;;;;;;11.82;9.48;;;;;;;16.49;56.25;94423.84;4967766;28;20335;-76
2023/10/20 08:51:31;;;;;;;11.55;9.10;;;;;;;16.44;55.60;94408.56;4953967;28;20232;-75
2023/10/20 08:53:57;;;;;;;12.68;8.85;;;;;;;16.83;54.38;94420.22;4967898;28;20225;-79
2023/10/20 08:56:23;;;;;;;12.82;9.18;;;;;;;16.74;55.01;94402.84;4967955;28;20200;-78
2023/10/20 08:58:48;;;;;;;13.60;9.68;;;;;;;16.94;54.29;94413.47;4973978;28;20243;-79
2023/10/20 09:01:15;;;;;;;14.15;9.27;;;;;;;16.89;55.47;94407.97;4965149;28;20212;-77
2023/10/20 09:03:43;;;;;;;14.93;9.80;;;;;;;17.06;54.61;94419.81;4975831;28;20220;-78
2023/10/20 09:06:12;;;;;;;13.68;8.73;;;;;;;17.22;54.10;94417.75;4974265;28;20291;-80
2023/10/20 09:08:38;;;;;;;13.23;8.75;;;;;;;17.25;53.80;94406.69;4974377;28;20327;-77
2023/10/20 09:11:11;;;;;;;11.05;8.65;;;;;;;17.58;52.65;94411.91;4969844;28;20219;-78
2023/10/20 09:13:39;;;;;;;12.38;8.38;;;;;;;17.55;52.75;94410.50;4977838;28;20219;-78
2023/10/20 09:16:11;;;;;;;13.18;7.75;;;;;;;17.70;51.81;94414.75;4976600;28;20256;-78
2023/10/20 09:18:53;;;;;;;14.52;7.80;;;;;;;17.74;51.45;94400.81;5000953;28;20231;-78
2023/10/20 09:21:24;;;;;;;11.20;7.90;;;;;;;17.78;51.62;94402.03;4979808;28;20251;-77
2023/10/20 09:24:04;;;;;;;10.85;7.35;;;;;;;17.87;51.30;94380.53;4982833;28;20281;-77
2023/10/20 09:26:33;;;;;;;9.10;6.93;;;;;;;17.89;51.03;94391.78;4968823;28;20251;-78
2023/10/20 09:28:58;;;;;;;8.88;6.65;;;;;;;17.97;50.52;94372.94;4977821;28;20192;-80
2023/10/20 09:31:25;;;;;;;12.77;7.18;;;;;;;17.99;50.77;94382.31;4989250;28;20220;-79
2023/10/20 09:33:52;;;;;;;11.75;7.55;;;;;;;18.09;50.13;94373.88;4985814;28;20379;-82
2023/10/20 09:36:18;;;;;;;10.55;7.13;;;;;;;18.03;50.72;94377.38;4961948;28;20283;-80
2023/10/20 09:38:49;;;;;;;12.68;6.90;;;;;;;18.17;50.32;94372.78;4997611;28;20244;-80
2023/10/20 09:41:17;;;;;;;10.00;7.13;;;;;;;18.02;50.63;94367.78;4976641;28;20203;-81
2023/10/20 09:44:02;;;;;;;9.25;6.43;;;;;;;18.27;51.06;94362.50;4984919;28;20254;-76
2023/10/20 09:47:10;;;;;;;9.57;6.05;;;;;;;18.64;50.52;94346.66;4965974;28;20235;-78
2023/10/20 09:49:38;;;;;;;10.35;6.43;;;;;;;19.06;49.82;94349.56;4919291;29;20233;-76
2023/10/20 09:52:05;;;;;;;7.95;5.78;;;;;;;19.26;48.33;94341.38;4926554;29;20311;-77
2023/10/20 09:54:33;;;;;;;11.40;6.78;;;;;;;19.53;47.26;94349.88;4917709;29;20251;-76
2023/10/20 09:57:00;;;;;;;11.15;6.78;;;;;;;19.61;47.81;94353.06;4937680;29;20221;-74
2023/10/20 09:59:27;;;;;;;10.15;6.28;;;;;;;19.78;46.90;94349.81;4921542;29;20186;-76
2023/10/20 10:01:54;;;;;;;11.38;6.07;;;;;;;20.00;46.16;94352.81;4935631;29;20192;-74
2023/10/20 10:04:26;;;;;;;8.68;5.95;;;;;;;20.13;45.92;94343.78;4919264;29;20257;-75
2023/10/20 10:06:52;;;;;;;7.53;6.30;;;;;;;20.22;45.46;94332.59;4934195;29;20245;-75
2023/10/20 10:09:18;;;;;;;9.27;5.80;;;;;;;20.28;45.06;94337.00;4949365;28;20228;-75
2023/10/20 10:11:45;;;;;;;9.98;6.50;;;;;;;20.38;44.27;94333.78;4934537;29;20226;-75
2023/10/20 10:14:20;;;;;;;15.45;7.30;;;;;;;20.29;44.93;94332.50;4937749;29;20212;-75
2023/10/20 10:16:54;;;;;;;13.00;6.55;;;;;;;20.25;45.00;94336.66;4937801;29;20231;-74
2023/10/20 10:19:23;;;;;;;16.77;5.97;;;;;;;20.26;44.86;94317.75;4917250;29;20233;-75
2023/10/20 10:21:54;;;;;;;11.68;6.70;;;;;;;20.21;44.95;94319.47;4919015;29;20225;-75
2023/10/20 10:24:22;;;;;;;11.90;6.55;;;;;;;20.26;45.22;94316.91;4975855;28;20302;-75
2023/10/20 10:26:51;;;;;;;9.02;5.63;;;;;;;20.32;44.93;94316.00;4969771;28;20230;-77
2023/10/20 10:29:41;;;;;;;11.38;5.68;;;;;;;20.34;44.66;94313.09;4972665;28;20240;-75
2023/10/20 10:32:12;;;;;;;15.50;5.43;;;;;;;20.31;44.53;94297.53;4975003;28;20231;-77
2023/10/20 10:34:42;;;;;;;8.43;4.97;;;;;;;20.31;44.76;94302.88;4962279;28;20236;-76
2023/10/20 10:37:08;;;;;;;10.07;4.53;;;;;;;20.28;44.64;94293.47;4983626;28;20220;-74
2023/10/20 10:39:33;;;;;;;9.75;5.15;;;;;;;20.30;44.76;94301.25;4974297;28;20227;-76
2023/10/20 10:42:03;;;;;;;11.30;5.72;;;;;;;20.36;44.87;94295.00;4973679;28;20314;-76
2023/10/20 10:44:36;;;;;;;9.55;4.35;;;;;;;20.46;44.05;94297.94;4957789;28;20196;-75
2023/10/20 10:47:05;;;;;;;12.77;4.55;;;;;;;20.50;43.70;94291.06;4984293;28;20177;-75
2023/10/20 10:49:32;;;;;;;8.68;4.55;;;;;;;20.65;42.95;94296.81;4987376;28;20220;-75
2023/10/20 10:51:58;;;;;;;13.20;8.52;;;;;;;20.65;43.49;94299.47;4973635;28;20815;-76
2023/10/20 10:54:26;;;;;;;9.75;5.40;;;;;;;20.75;43.26;94292.75;4980684;28;20240;-75
2023/10/20 10:56:52;;;;;;;13.93;4.85;;;;;;;20.78;43.01;94276.25;4969230;28;20224;-75
2023/10/20 10:59:19;;;;;;;6.97;4.38;;;;;;;20.69;42.94;94281.16;4969970;28;20184;-74
2023/10/20 11:01:46;;;;;;;8.52;4.22;;;;;;;20.68;42.80;94285.66;5008132;28;20183;-75
2023/10/20 11:04:12;;;;;;;11.68;4.20;;;;;;;20.77;41.83;94279.94;4968411;28;20213;-76
2023/10/20 11:06:38;;;;;;;9.25;4.28;;;;;;;20.57;42.44;94285.66;4970479;28;20267;-76
2023/10/20 11:09:10;;;;;;;10.98;5.10;;;;;;;20.48;41.58;94277.97;4982126;28;20224;-75
2023/10/20 11:11:42;;;;;;;9.43;3.90;;;;;;;20.44;42.39;94271.44;4985888;28;20214;-76
2023/10/20 11:14:08;;;;;;;8.70;3.80;;;;;;;20.75;41.19;94276.72;4969517;28;20509;-77
2023/10/20 11:16:36;;;;;;;5.93;3.53;;;;;;;20.93;40.62;94274.75;4972640;28;20306;-74
2023/10/20 11:19:02;;;;;;;10.68;4.05;;;;;;;21.20;39.96;94274.22;4967940;28;20229;-76
2023/10/20 11:21:28;;;;;;;8.05;4.18;;;;;;;21.36;40.91;94270.00;4964305;28;20228;-76
2023/10/20 11:23:56;;;;;;;9.90;4.43;;;;;;;21.54;39.31;94253.81;4949152;28;20219;-75
2023/10/20 11:26:24;;;;;;;6.78;3.90;;;;;;;21.67;39.49;94257.25;4957786;28;20213;-75
2023/10/20 11:28:50;;;;;;;8.40;3.95;;;;;;;21.93;38.50;94255.84;4955916;28;20242;-76
2023/10/20 11:31:16;;;;;;;12.82;4.30;;;;;;;22.37;37.02;94245.38;4964943;28;20225;-75
2023/10/20 11:33:41;;;;;;;7.40;4.43;;;;;;;22.41;37.27;94239.28;4965222;28;20247;-75
2023/10/20 11:36:07;;;;;;;10.27;4.78;;;;;;;22.43;37.47;94250.56;4971195;28;20232;-74
2023/10/20 11:38:32;;;;;;;10.45;4.10;;;;;;;22.70;36.76;94249.91;4969262;28;20184;-74
2023/10/20 11:41:00;;;;;;;11.90;5.20;;;;;;;22.76;36.51;94248.91;4994874;28;20188;-76
2023/10/20 11:43:25;;;;;;;8.50;5.90;;;;;;;22.84;37.38;94245.00;4971039;28;20231;-75
2023/10/20 11:45:51;;;;;;;13.20;6.18;;;;;;;23.00;37.48;94254.91;4976628;28;20212;-75
2023/10/20 11:48:17;;;;;;;9.63;4.47;;;;;;;23.21;35.22;94249.81;4972313;28;20315;-74
2023/10/20 11:50:42;;;;;;;10.35;4.63;;;;;;;23.17;35.62;94243.31;4965387;28;20675;-80
2023/10/20 11:53:08;;;;;;;13.80;4.93;;;;;;;23.30;35.25;94242.97;4954627;28;20188;-75
2023/10/20 11:55:34;;;;;;;10.20;4.90;;;;;;;23.45;35.13;94251.19;4968548;28;20212;-75